Meteo Giornale » Osservazioni meteo Stati Uniti (USA) » Hagerstown Washington Co

ore: 00:53 - Osservazioni Meteo Hagerstown Washington Co
Lat. 39° 42' N Lon. 77° 43' W Alt. 214 metri s.l.m.

poco_nuvoloso

23 °C

Poco Nuvoloso

Temp. 24 Ore

21 °C

27 °C

Sud/Sud-Est

7.4 Km/h

Dew point 22 °C

Umidità 94 %

Visibilità  10 Km

Il sole sorge alle ore 06:39

Il sole tramonta alle ore 19:42

Data e Ora Cielo e Fenomeni T °C DP °C Um. % Pres. hPa Vis. km Vento km/h
Oggi h: 00:53 poco_nuvoloso Poco Nuvoloso 23 22 94 1018 10 S/SE 7.4
Ieri h: 23:53 poco_nuvoloso Poco Nuvoloso 23 21 88 1018 10 N 5.5
Ieri h: 22:53 coperto Coperto 23 21 88 1019 10 N 0
Ieri h: 21:53 molto_nuvoloso Molto Nuvoloso 22 21 94 1019 14 N 0
Ieri h: 20:53 poco_nuvoloso Poco Nuvoloso 23 21 88 1018 10 N 5.5
Ieri h: 19:53 molto_nuvoloso Molto Nuvoloso 22 21 94 1018 10 N 5.5
Ieri h: 19:45 molto_nuvoloso Molto Nuvoloso 23 21 88 1018 10 N 5.5
Ieri h: 19:30 nuvoloso_temporali Temporale nelle vicinanze 23 20 83 1018 10 N 5.5
Ieri h: 19:18 coperto_pioggia Pioggia 23 19 78 1018 10 SE 7.4
Ieri h: 19:09 nuvoloso_temporali Temporale 23 19 78 1018 5 S 9.3
Ieri h: 19:04 nuvoloso_temporali Temporale 23 19 78 1018 2 N 0
Ieri h: 18:53 nuvoloso_temporali Temporale Nebbia 22 21 94 1019 2 O 37
Ieri h: 18:51 nuvoloso_temporali Temporale Foschia 22 21 94 1019 5 O/NO 33.3
Ieri h: 18:46 nuvoloso_temporali Temporale Foschia 22 19 83 1019 5 NO 24
Ieri h: 18:42 nuvoloso_temporali Temporale 23 19 78 1019 10 O/NO 35.2
Ieri h: 17:53 sereno Sereno 27 21 69 1018 10 S/SE 9.3
Ieri h: 16:53 sereno Sereno 27 21 69 1019 10 S 11.1
Ieri h: 15:53 sereno Sereno 27 21 69 1019 10 S 7.4
Ieri h: 14:53 sereno Sereno 27 21 69 1019 10 S/SO 9.3
Ieri h: 13:53 molto_nuvoloso Molto Nuvoloso 27 19 61 1020 10 S 7.4
Ieri h: 12:53 molto_nuvoloso Molto Nuvoloso 26 20 69 1020 10 O/SO 9.3
Ieri h: 11:53 sereno Sereno 26 19 65 1020 10 N 5.5
Ieri h: 10:53 poco_nuvoloso Poco Nuvoloso 26 19 65 1021 10 N 5.5
Ieri h: 09:53 coperto Coperto 24 19 73 1021 10 N 0
Ieri h: 08:53 molto_nuvoloso Molto Nuvoloso 23 19 78 1020 10 N 0
Ieri h: 07:53 sereno Sereno 22 20 88 1020 14 N 5.5
Ieri h: 06:53 poco_nuvoloso Poco Nuvoloso 21 20 94 1020 14 N/NO 9.3
Ieri h: 05:53 molto_nuvoloso Molto Nuvoloso 21 20 94 1019 10 N 0
Ieri h: 04:53 sereno Sereno 22 20 88 1019 10 N/NO 9.3
Ieri h: 03:53 sereno Sereno 22 20 88 1019 10 N 7.4
Ieri h: 02:53 molto_nuvoloso Molto Nuvoloso 23 21 88 1019 10 N 0
Ieri h: 01:53 coperto Coperto 23 22 94 1019 10 N 5.5